Time;durP1;ratioP1;P1;durP2;ratioP2;P2;SDS_P1;SDS_P2;PMS_P1;PMS_P2;Temp;Humidity;BMP_temperature;BMP_pressure;BME280_temperature;BME280_humidity;BME280_pressure;Samples;Min_cycle;Max_cycle;Signal;HPM_P1;HPM_P2
2023/02/22 00:04:00;;;;;;;125.38;34.83;;;;;;;;;;6215321;23;20028;-94
2023/02/22 00:06:29;;;;;;;53.75;19.52;;;;;;;;;;6188614;23;20461;-95
2023/02/22 00:08:57;;;;;;;46.75;19.50;;;;;;;;;;6188826;23;20051;-94
2023/02/22 00:11:24;;;;;;;44.42;18.33;;;;;;;;;;6188949;23;20488;-95
2023/02/22 00:13:55;;;;;;;83.25;25.25;;;;;;;;;;6188271;23;20004;-95
2023/02/22 00:16:24;;;;;;;63.10;22.95;;;;;;;;;;6215368;23;20427;-96
2023/02/22 00:18:52;;;;;;;73.75;25.83;;;;;;;;;;6188141;23;20008;-94
2023/02/22 00:21:19;;;;;;;48.10;19.55;;;;;;;;;;6188780;23;20020;-95
2023/02/22 00:23:46;;;;;;;49.95;19.85;;;;;;;;;;6188619;23;20009;-94
2023/02/22 00:26:17;;;;;;;62.22;26.08;;;;;;;;;;6188277;23;20063;-93
2023/02/22 00:28:47;;;;;;;57.83;23.25;;;;;;;;;;6188106;23;20096;-94
2023/02/22 00:31:14;;;;;;;50.33;20.70;;;;;;;;;;6188237;23;20012;-94
2023/02/22 00:33:41;;;;;;;33.10;13.13;;;;;;;;;;6188397;23;20009;-93
2023/02/22 00:36:09;;;;;;;40.63;18.23;;;;;;;;;;6188322;23;20016;-94
2023/02/22 00:38:37;;;;;;;51.33;20.10;;;;;;;;;;6188389;23;20029;-94
2023/02/22 00:41:04;;;;;;;51.03;22.42;;;;;;;;;;6188484;23;20001;-94
2023/02/22 00:43:31;;;;;;;42.15;18.65;;;;;;;;;;6188017;23;20008;-95
2023/02/22 00:45:57;;;;;;;45.15;20.95;;;;;;;;;;6188002;23;20005;-93
2023/02/22 00:48:25;;;;;;;33.78;16.75;;;;;;;;;;6190781;23;20012;-95
2023/02/22 00:50:54;;;;;;;36.05;16.00;;;;;;;;;;6190434;23;20381;-95
2023/02/22 00:53:22;;;;;;;39.33;18.20;;;;;;;;;;6190239;23;20304;-95
2023/02/22 00:55:49;;;;;;;23.10;11.82;;;;;;;;;;6190455;23;20028;-94
2023/02/22 00:58:17;;;;;;;23.30;10.90;;;;;;;;;;6190813;23;20480;-94
2023/02/22 01:00:45;;;;;;;31.83;13.38;;;;;;;;;;6190670;23;20430;-94
2023/02/22 01:03:13;;;;;;;23.27;12.40;;;;;;;;;;6190224;23;20008;-94
2023/02/22 01:05:41;;;;;;;20.80;10.05;;;;;;;;;;6190350;23;20009;-94
2023/02/22 01:08:09;;;;;;;22.67;10.57;;;;;;;;;;6189760;23;20036;-95
2023/02/22 01:10:36;;;;;;;18.88;9.30;;;;;;;;;;6188070;23;20080;-93
2023/02/22 01:13:07;;;;;;;17.30;8.13;;;;;;;;;;6188957;23;20005;-95
2023/02/22 01:15:35;;;;;;;16.90;7.97;;;;;;;;;;6190381;23;20115;-93
2023/02/22 01:18:03;;;;;;;15.52;7.70;;;;;;;;;;6190629;23;20011;-94
2023/02/22 01:23:34;;;;;;;14.15;7.47;;;;;;;;;;6213973;23;20016;-95
2023/02/22 01:29:07;;;;;;;24.37;11.53;;;;;;;;;;6182209;23;20465;-94
2023/02/22 01:31:34;;;;;;;71.60;26.73;;;;;;;;;;6187602;23;20242;-95
2023/02/22 01:34:01;;;;;;;61.83;23.98;;;;;;;;;;6187587;23;20000;-95
2023/02/22 01:36:28;;;;;;;58.35;22.48;;;;;;;;;;6187567;23;20008;-95
2023/02/22 01:38:55;;;;;;;51.08;21.40;;;;;;;;;;6188327;23;20080;-95
2023/02/22 01:41:22;;;;;;;49.90;21.20;;;;;;;;;;6187173;23;20012;-94
2023/02/22 01:43:49;;;;;;;41.95;19.60;;;;;;;;;;6187581;23;20414;-95
2023/02/22 01:46:24;;;;;;;44.85;19.02;;;;;;;;;;6187331;23;20005;-94
2023/02/22 01:48:54;;;;;;;27.15;13.50;;;;;;;;;;6187666;23;20020;-93
2023/02/22 01:51:24;;;;;;;35.40;16.10;;;;;;;;;;6187641;23;20464;-94
2023/02/22 01:54:08;;;;;;;22.17;10.00;;;;;;;;;;6187528;23;20004;-94
2023/02/22 01:56:37;;;;;;;25.58;12.25;;;;;;;;;;6187567;23;20492;-94
2023/02/22 01:59:07;;;;;;;41.67;18.38;;;;;;;;;;6187007;23;20005;-94
2023/02/22 02:01:35;;;;;;;26.63;12.65;;;;;;;;;;6187541;23;20004;-95
2023/02/22 02:04:06;;;;;;;37.15;18.02;;;;;;;;;;6187570;23;20001;-95
2023/02/22 02:06:34;;;;;;;43.42;18.55;;;;;;;;;;6187544;23;20096;-94
2023/02/22 02:09:04;;;;;;;34.78;16.15;;;;;;;;;;6182505;23;20032;-94
2023/02/22 02:11:32;;;;;;;39.58;17.88;;;;;;;;;;6190017;23;20016;-95
2023/02/22 02:13:59;;;;;;;24.85;13.18;;;;;;;;;;6189584;23;20051;-94
2023/02/22 02:16:33;;;;;;;20.92;10.32;;;;;;;;;;6189998;23;20001;-94
2023/02/22 02:19:00;;;;;;;25.42;12.10;;;;;;;;;;6190181;23;20004;-93
2023/02/22 02:21:42;;;;;;;23.98;12.15;;;;;;;;;;6189282;23;20004;-94
2023/02/22 02:24:13;;;;;;;15.40;8.38;;;;;;;;;;6189987;23;20414;-93
2023/02/22 02:26:39;;;;;;;20.13;10.40;;;;;;;;;;6189336;23;20366;-94
2023/02/22 02:29:18;;;;;;;19.75;12.00;;;;;;;;;;6183637;23;20020;-92
2023/02/22 02:32:04;;;;;;;14.23;9.02;;;;;;;;;;6184339;23;20435;-93
2023/02/22 02:34:34;;;;;;;14.60;8.93;;;;;;;;;;6159809;23;20013;-94
2023/02/22 02:37:07;;;;;;;11.45;6.63;;;;;;;;;;6160107;23;20019;-95
2023/02/22 02:39:37;;;;;;;11.60;7.07;;;;;;;;;;6159455;23;20017;-93
2023/02/22 02:42:07;;;;;;;16.40;9.75;;;;;;;;;;6159229;23;20005;-94
2023/02/22 02:44:37;;;;;;;12.35;7.20;;;;;;;;;;6159775;23;20088;-94
2023/02/22 02:47:09;;;;;;;10.50;7.18;;;;;;;;;;6161986;23;20399;-94
2023/02/22 02:49:41;;;;;;;12.33;7.33;;;;;;;;;;6161981;23;20453;-95
2023/02/22 02:52:11;;;;;;;12.30;7.53;;;;;;;;;;6162316;23;20439;-94
2023/02/22 02:54:39;;;;;;;16.98;8.68;;;;;;;;;;6161970;23;20034;-94
2023/02/22 02:57:08;;;;;;;12.80;8.15;;;;;;;;;;6161981;23;20005;-93
2023/02/22 02:59:36;;;;;;;13.68;7.13;;;;;;;;;;6161767;23;20088;-94
2023/02/22 03:02:03;;;;;;;10.68;7.05;;;;;;;;;;6161912;23;20016;-94
2023/02/22 03:04:54;;;;;;;14.93;8.23;;;;;;;;;;6162194;23;20001;-95
2023/02/22 03:07:37;;;;;;;12.15;7.75;;;;;;;;;;6108349;23;20092;-94
2023/02/22 03:10:07;;;;;;;12.38;7.38;;;;;;;;;;6161917;23;20010;-93
2023/02/22 03:12:48;;;;;;;20.73;12.95;;;;;;;;;;6162019;23;20438;-93
2023/02/22 03:15:22;;;;;;;16.63;9.80;;;;;;;;;;6186596;23;20016;-95
2023/02/22 03:18:05;;;;;;;17.63;10.85;;;;;;;;;;6161659;23;20011;-94
2023/02/22 03:20:41;;;;;;;17.33;9.82;;;;;;;;;;6186166;23;20016;-93
2023/02/22 03:23:18;;;;;;;15.55;9.32;;;;;;;;;;6162095;23;20065;-94
2023/02/22 03:25:48;;;;;;;15.63;10.05;;;;;;;;;;6162446;23;20092;-95
2023/02/22 03:28:16;;;;;;;15.15;10.10;;;;;;;;;;6186158;23;20017;-93
2023/02/22 03:31:01;;;;;;;15.02;9.23;;;;;;;;;;6161836;23;20005;-93
2023/02/22 03:33:35;;;;;;;14.90;9.00;;;;;;;;;;6161700;23;20005;-94
2023/02/22 03:36:12;;;;;;;11.73;8.20;;;;;;;;;;6161574;23;20144;-94
2023/02/22 03:38:41;;;;;;;15.00;9.98;;;;;;;;;;6161804;23;20016;-94
2023/02/22 03:41:08;;;;;;;14.60;9.05;;;;;;;;;;6161472;23;20075;-94
2023/02/22 03:43:42;;;;;;;15.73;9.57;;;;;;;;;;6161937;23;20005;-95
2023/02/22 03:46:10;;;;;;;15.00;10.38;;;;;;;;;;6161331;23;20004;-95
2023/02/22 03:48:43;;;;;;;15.40;10.43;;;;;;;;;;6161699;23;20020;-94
2023/02/22 03:51:13;;;;;;;15.95;10.27;;;;;;;;;;6161969;23;20084;-94
2023/02/22 03:53:41;;;;;;;15.48;10.45;;;;;;;;;;6161319;23;20009;-95
2023/02/22 03:56:10;;;;;;;16.98;10.65;;;;;;;;;;6161424;23;20005;-95
2023/02/22 04:04:48;;;;;;;14.23;8.63;;;;;;;;;;6195831;23;20028;-96
2023/02/22 04:07:14;;;;;;;19.02;11.55;;;;;;;;;;6191062;23;20155;-96
2023/02/22 04:09:41;;;;;;;16.00;8.88;;;;;;;;;;6191404;23;20016;-94
2023/02/22 04:12:08;;;;;;;16.38;9.20;;;;;;;;;;6190805;23;20000;-95
2023/02/22 04:14:36;;;;;;;13.30;8.60;;;;;;;;;;6190724;23;20005;-94
2023/02/22 04:17:03;;;;;;;13.85;8.00;;;;;;;;;;6191110;23;20012;-95
2023/02/22 04:19:30;;;;;;;16.58;9.95;;;;;;;;;;6190891;23;20000;-94
2023/02/22 04:21:57;;;;;;;17.85;8.85;;;;;;;;;;6191064;23;20004;-94
2023/02/22 04:24:24;;;;;;;12.55;7.63;;;;;;;;;;6191026;23;20576;-94
2023/02/22 04:26:51;;;;;;;14.75;9.05;;;;;;;;;;6191696;23;20086;-95
2023/02/22 04:29:19;;;;;;;18.13;9.60;;;;;;;;;;6190933;23;20091;-95
2023/02/22 04:31:46;;;;;;;16.27;8.85;;;;;;;;;;6190543;23;20047;-95
2023/02/22 04:34:13;;;;;;;12.43;7.00;;;;;;;;;;6191102;23;20012;-95
2023/02/22 04:36:43;;;;;;;13.27;7.38;;;;;;;;;;6190661;23;20050;-95
2023/02/22 04:39:10;;;;;;;14.88;8.68;;;;;;;;;;6190221;23;20091;-95
2023/02/22 04:41:37;;;;;;;8.57;5.60;;;;;;;;;;6190220;23;20004;-95
2023/02/22 04:44:05;;;;;;;11.98;7.43;;;;;;;;;;6189524;23;20015;-94
2023/02/22 04:46:32;;;;;;;12.05;7.80;;;;;;;;;;6187967;23;20080;-95
2023/02/22 04:48:59;;;;;;;10.32;5.85;;;;;;;;;;6189127;23;20017;-94
2023/02/22 04:51:26;;;;;;;12.50;6.63;;;;;;;;;;6190836;23;20001;-95
2023/02/22 04:53:54;;;;;;;13.52;8.23;;;;;;;;;;6183293;23;20066;-95
2023/02/22 04:56:20;;;;;;;12.70;7.65;;;;;;;;;;6190563;23;20001;-94
2023/02/22 04:58:46;;;;;;;12.25;6.13;;;;;;;;;;6190803;23;20000;-95
2023/02/22 05:01:13;;;;;;;20.92;14.27;;;;;;;;;;6190588;23;20091;-94
2023/02/22 05:03:41;;;;;;;18.05;11.73;;;;;;;;;;6191344;23;20481;-94
2023/02/22 05:06:07;;;;;;;17.65;11.93;;;;;;;;;;6190120;23;20028;-93
2023/02/22 05:08:33;;;;;;;12.73;7.07;;;;;;;;;;6190254;23;20024;-95
2023/02/22 05:11:01;;;;;;;16.67;10.48;;;;;;;;;;6190548;23;20001;-95
2023/02/22 05:13:28;;;;;;;17.17;10.77;;;;;;;;;;6190545;23;20027;-94
2023/02/22 05:15:55;;;;;;;15.55;9.45;;;;;;;;;;6191137;23;20009;-94
2023/02/22 05:18:22;;;;;;;14.38;9.48;;;;;;;;;;6190179;23;20020;-94
2023/02/22 05:20:50;;;;;;;18.23;12.00;;;;;;;;;;6190248;23;20007;-94
2023/02/22 05:23:17;;;;;;;20.48;12.23;;;;;;;;;;6190569;23;20008;-94
2023/02/22 05:25:44;;;;;;;15.23;10.27;;;;;;;;;;6190410;23;20008;-92
2023/02/22 05:28:13;;;;;;;13.27;8.10;;;;;;;;;;6190454;23;20016;-94
2023/02/22 05:30:41;;;;;;;16.05;9.52;;;;;;;;;;6190141;23;20008;-93
2023/02/22 05:33:09;;;;;;;18.00;9.60;;;;;;;;;;6190282;23;20039;-94
2023/02/22 05:35:36;;;;;;;16.83;10.07;;;;;;;;;;6190375;23;20063;-94
2023/02/22 05:38:04;;;;;;;17.35;10.07;;;;;;;;;;6190253;23;20040;-94
2023/02/22 05:40:32;;;;;;;23.13;14.23;;;;;;;;;;6216548;23;20001;-94
2023/02/22 05:43:00;;;;;;;32.15;21.23;;;;;;;;;;6190759;23;20008;-93
2023/02/22 05:45:28;;;;;;;26.05;17.08;;;;;;;;;;6190017;23;20005;-95
2023/02/22 05:47:55;;;;;;;25.08;16.25;;;;;;;;;;6188387;23;20174;-93
2023/02/22 05:50:21;;;;;;;26.02;15.13;;;;;;;;;;6189138;23;20001;-94
2023/02/22 05:52:49;;;;;;;21.45;14.52;;;;;;;;;;6188908;23;20343;-94
2023/02/22 05:55:18;;;;;;;20.08;13.45;;;;;;;;;;6190004;23;20000;-93
2023/02/22 05:57:45;;;;;;;19.48;11.82;;;;;;;;;;6189719;23;20016;-94
2023/02/22 06:00:16;;;;;;;16.38;10.82;;;;;;;;;;6189133;23;20009;-92
2023/02/22 06:02:42;;;;;;;16.83;10.02;;;;;;;;;;6188547;23;20004;-94
2023/02/22 06:05:08;;;;;;;13.68;7.78;;;;;;;;;;6188077;23;20110;-94
2023/02/22 06:07:36;;;;;;;13.73;8.50;;;;;;;;;;6188968;23;20009;-94
2023/02/22 06:10:02;;;;;;;18.15;8.95;;;;;;;;;;6190541;23;20432;-94
2023/02/22 06:12:29;;;;;;;15.73;8.90;;;;;;;;;;6200767;23;20064;-94
2023/02/22 06:14:56;;;;;;;14.80;9.07;;;;;;;;;;6189941;23;20020;-95
2023/02/22 06:17:23;;;;;;;13.88;9.07;;;;;;;;;;6194921;23;20004;-95
2023/02/22 06:19:50;;;;;;;24.63;9.38;;;;;;;;;;6191657;23;20027;-94
2023/02/22 06:22:18;;;;;;;17.02;8.85;;;;;;;;;;6191738;23;20422;-96
2023/02/22 06:24:46;;;;;;;14.57;9.02;;;;;;;;;;6190355;23;20031;-94
2023/02/22 06:27:14;;;;;;;12.77;7.25;;;;;;;;;;6190301;23;20048;-96
2023/02/22 06:29:45;;;;;;;16.45;8.77;;;;;;;;;;6193708;23;20009;-93
2023/02/22 06:32:13;;;;;;;14.05;8.85;;;;;;;;;;6191943;23;20007;-95
2023/02/22 06:40:50;;;;;;;15.43;7.93;;;;;;;;;;6217988;23;20038;-94
2023/02/22 06:43:18;;;;;;;14.80;8.65;;;;;;;;;;6189746;23;20005;-93
2023/02/22 06:45:45;;;;;;;13.88;7.55;;;;;;;;;;6190147;23;20009;-94
2023/02/22 06:48:12;;;;;;;13.02;7.78;;;;;;;;;;6190295;23;20040;-93
2023/02/22 06:50:39;;;;;;;16.00;8.65;;;;;;;;;;6190200;23;20001;-93
2023/02/22 06:53:06;;;;;;;17.20;12.32;;;;;;;;;;6191123;23;20048;-96
2023/02/22 06:55:44;;;;;;;16.23;10.13;;;;;;;;;;6191364;23;20036;-94
2023/02/22 06:58:10;;;;;;;14.18;9.02;;;;;;;;;;6216576;23;20010;-95
2023/02/22 07:00:50;;;;;;;17.73;10.10;;;;;;;;;;6198976;23;20004;-95
2023/02/22 07:03:29;;;;;;;18.48;11.70;;;;;;;;;;6222817;23;19989;-95
2023/02/22 07:05:58;;;;;;;17.10;10.52;;;;;;;;;;6222616;23;20039;-92
2023/02/22 07:08:28;;;;;;;17.05;11.20;;;;;;;;;;6195045;23;20091;-94
2023/02/22 07:11:03;;;;;;;19.63;10.77;;;;;;;;;;6199661;23;20001;-94
2023/02/22 07:13:29;;;;;;;18.65;11.73;;;;;;;;;;6192441;23;20009;-96
2023/02/22 07:15:59;;;;;;;18.40;10.90;;;;;;;;;;6200284;23;20012;-95
2023/02/22 07:18:45;;;;;;;;;;;;;;;;;;;;;
2023/02/22 07:21:15;;;;;;;18.38;10.70;;;;;;;;;;6222438;23;20036;-96
2023/02/22 07:23:42;;;;;;;16.23;9.25;;;;;;;;;;6191497;23;20032;-94
2023/02/22 07:26:09;;;;;;;18.02;10.32;;;;;;;;;;6190893;23;20009;-93
2023/02/22 07:28:35;;;;;;;17.98;9.85;;;;;;;;;;6189771;23;20073;-95
2023/02/22 07:31:03;;;;;;;18.65;11.20;;;;;;;;;;6191399;23;20009;-95
2023/02/22 07:33:34;;;;;;;16.75;10.13;;;;;;;;;;6190615;23;20016;-94
2023/02/22 07:36:05;;;;;;;14.57;9.63;;;;;;;;;;6191379;23;20055;-96
2023/02/22 07:38:52;;;;;;;16.52;9.13;;;;;;;;;;6190185;23;20391;-95
2023/02/22 07:41:21;;;;;;;14.77;9.77;;;;;;;;;;6190742;23;20001;-95
2023/02/22 07:43:53;;;;;;;16.35;8.88;;;;;;;;;;6192793;23;20008;-95
2023/02/22 07:49:18;;;;;;;15.88;9.68;;;;;;;;;;6233959;23;20473;-93
2023/02/22 07:51:55;;;;;;;14.75;9.32;;;;;;;;;;6192732;23;20016;-93
2023/02/22 07:54:22;;;;;;;34.95;25.23;;;;;;;;;;6192972;23;20015;-94
2023/02/22 07:56:49;;;;;;;17.90;10.75;;;;;;;;;;6193657;23;20001;-93
2023/02/22 07:59:32;;;;;;;19.02;11.30;;;;;;;;;;6193044;23;20001;-96
2023/02/22 08:02:00;;;;;;;19.25;10.80;;;;;;;;;;6194458;23;20005;-96
2023/02/22 08:04:31;;;;;;;17.58;10.35;;;;;;;;;;6226836;23;20012;-94
2023/02/22 08:07:10;;;;;;;13.48;8.45;;;;;;;;;;6195449;23;20019;-95
2023/02/22 08:12:31;;;;;;;13.60;8.32;;;;;;;;;;6177628;23;20044;-95
2023/02/22 08:14:58;;;;;;;14.82;9.15;;;;;;;;;;6191555;23;20005;-94
2023/02/22 08:17:25;;;;;;;14.35;9.43;;;;;;;;;;6193977;23;20024;-95
2023/02/22 08:19:59;;;;;;;14.60;8.23;;;;;;;;;;6193333;23;20004;-96
2023/02/22 08:22:39;;;;;;;16.05;7.13;;;;;;;;;;6196523;23;20067;-96
2023/02/22 08:25:06;;;;;;;10.80;7.72;;;;;;;;;;6193859;23;20011;-95
2023/02/22 08:27:33;;;;;;;10.75;9.32;;;;;;;;;;6195621;23;20017;-94
2023/02/22 08:30:01;;;;;;;11.82;7.28;;;;;;;;;;6192557;23;20020;-94
2023/02/22 08:32:27;;;;;;;9.30;5.82;;;;;;;;;;6196887;23;20068;-92
2023/02/22 08:34:54;;;;;;;10.90;5.40;;;;;;;;;;6213398;23;20004;-94
2023/02/22 08:37:22;;;;;;;7.63;5.25;;;;;;;;;;6198922;23;20000;-95
2023/02/22 08:39:49;;;;;;;10.38;5.32;;;;;;;;;;6198080;23;19997;-94
2023/02/22 08:45:50;;;;;;;10.38;5.93;;;;;;;;;;6192642;23;20063;-95
2023/02/22 08:48:33;;;;;;;10.15;6.75;;;;;;;;;;6199054;23;20012;-96
2023/02/22 08:51:01;;;;;;;;;;;;;;;;;;6225924;23;20004;-96
2023/02/22 08:57:15;;;;;;;8.25;5.85;;;;;;;;;;6209829;23;20135;-96
2023/02/22 09:03:12;;;;;;;9.68;6.72;;;;;;;;;;6133475;23;20010;-96
2023/02/22 09:05:39;;;;;;;10.07;6.90;;;;;;;;;;6188686;23;20012;-93
2023/02/22 09:08:08;;;;;;;11.77;7.65;;;;;;;;;;6192104;23;20017;-95
2023/02/22 09:10:39;;;;;;;9.60;6.28;;;;;;;;;;6194994;23;20008;-95
2023/02/22 09:22:11;;;;;;;11.13;6.80;;;;;;;;;;6223089;22;20113;-94
2023/02/22 09:24:38;;;;;;;9.68;6.45;;;;;;;;;;6195180;23;20004;-95
2023/02/22 09:27:06;;;;;;;10.38;7.90;;;;;;;;;;6189806;23;20014;-92
2023/02/22 09:29:32;;;;;;;7.32;5.82;;;;;;;;;;6188870;23;20338;-95
2023/02/22 09:31:58;;;;;;;8.95;6.60;;;;;;;;;;6188477;23;20379;-94
2023/02/22 09:34:35;;;;;;;9.57;6.15;;;;;;;;;;6190413;23;20084;-96
2023/02/22 09:37:03;;;;;;;9.23;6.28;;;;;;;;;;6190753;23;20008;-94
2023/02/22 09:39:29;;;;;;;10.00;6.57;;;;;;;;;;6190732;23;20009;-93
2023/02/22 09:42:14;;;;;;;8.50;6.05;;;;;;;;;;6189740;23;20054;-94
2023/02/22 09:44:52;;;;;;;9.57;6.35;;;;;;;;;;6190177;23;20005;-94
2023/02/22 09:47:20;;;;;;;10.18;6.18;;;;;;;;;;6189324;23;20005;-96
2023/02/22 09:49:56;;;;;;;8.88;6.45;;;;;;;;;;6189693;23;20036;-96
2023/02/22 09:52:22;;;;;;;9.40;6.85;;;;;;;;;;6190056;23;20099;-95
2023/02/22 09:54:52;;;;;;;10.48;7.63;;;;;;;;;;6189525;23;20012;-94
2023/02/22 09:57:21;;;;;;;9.23;7.50;;;;;;;;;;6189887;23;20020;-95
2023/02/22 09:59:59;;;;;;;11.63;8.35;;;;;;;;;;6190244;23;20056;-94
2023/02/22 10:02:28;;;;;;;10.07;7.43;;;;;;;;;;6215005;23;20019;-93
2023/02/22 10:05:28;;;;;;;10.75;7.60;;;;;;;;;;6188586;23;20028;-93
2023/02/22 10:08:07;;;;;;;8.95;6.78;;;;;;;;;;6126079;23;20016;-95
2023/02/22 10:10:38;;;;;;;9.30;7.32;;;;;;;;;;6189256;23;20004;-96
2023/02/22 10:13:22;;;;;;;11.30;7.40;;;;;;;;;;6191986;23;20013;-96
2023/02/22 10:15:50;;;;;;;9.85;6.78;;;;;;;;;;6191015;23;20004;-96
2023/02/22 10:18:29;;;;;;;8.95;7.32;;;;;;;;;;6190842;23;20005;-95
2023/02/22 10:21:06;;;;;;;9.52;7.05;;;;;;;;;;6185019;23;20021;-96
2023/02/22 10:23:55;;;;;;;11.35;7.88;;;;;;;;;;6184569;23;20005;-96
2023/02/22 10:26:48;;;;;;;9.77;8.30;;;;;;;;;;6208744;23;20008;-94
2023/02/22 10:29:21;;;;;;;9.50;7.70;;;;;;;;;;6153008;23;20024;-93
2023/02/22 10:31:51;;;;;;;10.05;7.90;;;;;;;;;;6197865;23;20089;-95
2023/02/22 10:34:22;;;;;;;11.23;8.40;;;;;;;;;;6201885;23;20020;-96
2023/02/22 10:36:50;;;;;;;9.75;7.93;;;;;;;;;;6194197;23;20009;-95
2023/02/22 10:43:07;;;;;;;11.27;7.38;;;;;;;;;;6203006;23;20020;-96
2023/02/22 10:51:50;;;;;;;10.75;7.03;;;;;;;;;;6264782;22;20096;-96
2023/02/22 10:54:50;;;;;;;11.60;7.85;;;;;;;;;;6169213;23;20048;-96
2023/02/22 10:57:38;;;;;;;9.02;8.10;;;;;;;;;;6164360;23;20020;-96
2023/02/22 11:00:25;;;;;;;10.50;7.97;;;;;;;;;;6187481;23;20427;-95
2023/02/22 11:02:58;;;;;;;11.00;8.18;;;;;;;;;;6191462;23;20256;-96
2023/02/22 11:05:35;;;;;;;8.25;7.28;;;;;;;;;;6192896;23;20066;-94
2023/02/22 11:08:27;;;;;;;8.30;7.07;;;;;;;;;;6192619;23;20079;-96
2023/02/22 11:10:56;;;;;;;9.25;7.10;;;;;;;;;;6177100;23;20001;-96
2023/02/22 11:13:32;;;;;;;9.80;7.18;;;;;;;;;;6192492;23;20016;-94
2023/02/22 11:16:01;;;;;;;8.63;7.70;;;;;;;;;;6192388;23;20000;-95
2023/02/22 11:18:33;;;;;;;8.40;7.03;;;;;;;;;;6192405;23;20013;-95
2023/02/22 11:21:11;;;;;;;8.65;7.38;;;;;;;;;;6218712;23;20008;-95
2023/02/22 11:23:39;;;;;;;9.75;7.90;;;;;;;;;;6192199;23;20142;-95
2023/02/22 11:26:07;;;;;;;10.05;7.78;;;;;;;;;;6192147;23;20028;-95
2023/02/22 11:28:35;;;;;;;9.90;8.57;;;;;;;;;;6192657;23;20021;-96
2023/02/22 11:31:13;;;;;;;10.05;8.40;;;;;;;;;;6222019;23;20001;-95
2023/02/22 11:34:01;;;;;;;8.70;7.80;;;;;;;;;;6194173;23;20019;-96
2023/02/22 11:37:02;;;;;;;10.55;8.27;;;;;;;;;;6198382;23;20008;-94
2023/02/22 11:42:28;;;;;;;8.80;7.90;;;;;;;;;;6201641;22;20020;-92
2023/02/22 11:45:10;;;;;;;10.25;7.72;;;;;;;;;;6191269;23;20008;-92
2023/02/22 11:47:48;;;;;;;8.65;7.40;;;;;;;;;;6218416;23;20024;-93
2023/02/22 11:50:36;;;;;;;10.48;7.47;;;;;;;;;;6196444;23;20100;-96
2023/02/22 12:09:52;;;;;;;11.30;8.90;;;;;;;;;;6202875;23;20045;-96
2023/02/22 12:30:03;;;;;;;11.00;8.10;;;;;;;;;;6238050;22;20008;-94
2023/02/22 12:32:32;;;;;;;12.10;8.88;;;;;;;;;;6205620;22;20024;-96
2023/02/22 12:35:04;;;;;;;10.13;9.10;;;;;;;;;;6190272;23;20011;-92
2023/02/22 12:37:46;;;;;;;10.10;8.27;;;;;;;;;;6187399;23;20013;-95
2023/02/22 12:40:17;;;;;;;9.38;8.10;;;;;;;;;;6187957;23;20005;-92
2023/02/22 12:43:04;;;;;;;9.35;7.82;;;;;;;;;;6196047;23;20419;-95
2023/02/22 12:45:52;;;;;;;8.45;7.03;;;;;;;;;;6191572;23;20133;-93
2023/02/22 12:48:43;;;;;;;8.13;7.22;;;;;;;;;;6186465;23;20061;-94
2023/02/22 12:51:29;;;;;;;8.90;8.00;;;;;;;;;;6186391;23;20005;-94
2023/02/22 12:54:27;;;;;;;8.05;7.03;;;;;;;;;;6210564;23;20004;-94
2023/02/22 12:57:02;;;;;;;10.25;7.65;;;;;;;;;;6193288;23;20030;-94
2023/02/22 12:59:34;;;;;;;9.77;7.30;;;;;;;;;;6190842;23;20012;-93
2023/02/22 13:02:23;;;;;;;8.60;7.15;;;;;;;;;;6189467;23;20001;-93
2023/02/22 13:04:55;;;;;;;8.90;6.82;;;;;;;;;;6196545;23;20023;-96
2023/02/22 13:07:49;;;;;;;7.28;5.95;;;;;;;;;;6194932;23;20009;-96
2023/02/22 13:10:36;;;;;;;7.20;6.03;;;;;;;;;;6197728;23;20005;-96
2023/02/22 13:13:17;;;;;;;8.18;6.63;;;;;;;;;;6212179;23;20402;-93
2023/02/22 13:15:51;;;;;;;8.52;7.50;;;;;;;;;;6188879;23;20088;-93
2023/02/22 13:18:19;;;;;;;;;;;;;;;;;;6185603;23;20062;-93
2023/02/22 13:20:53;;;;;;;10.88;7.97;;;;;;;;;;6189899;23;20014;-92
2023/02/22 13:23:36;;;;;;;8.77;7.20;;;;;;;;;;6185465;23;20088;-95
2023/02/22 13:26:31;;;;;;;10.40;8.38;;;;;;;;;;6209896;23;20012;-93
2023/02/22 13:29:14;;;;;;;9.75;8.15;;;;;;;;;;6142532;23;20019;-95
2023/02/22 13:31:40;;;;;;;;;;;;;;;;;;6187792;23;20025;-93
2023/02/22 13:34:27;;;;;;;11.88;9.18;;;;;;;;;;6183668;23;19984;-93
2023/02/22 13:36:59;;;;;;;11.57;10.15;;;;;;;;;;6184009;23;20013;-92
2023/02/22 13:42:30;;;;;;;11.82;9.30;;;;;;;;;;6210815;23;19999;-92
2023/02/22 13:45:02;;;;;;;11.35;9.40;;;;;;;;;;6183656;23;20016;-93
2023/02/22 13:47:32;;;;;;;11.90;9.50;;;;;;;;;;6182954;23;20028;-92
2023/02/22 13:50:17;;;;;;;13.77;9.48;;;;;;;;;;6182632;23;20005;-94
2023/02/22 13:52:43;;;;;;;11.52;8.80;;;;;;;;;;6185189;23;20005;-92
2023/02/22 13:55:20;;;;;;;12.25;10.25;;;;;;;;;;6183063;23;20008;-93
2023/02/22 13:58:07;;;;;;;12.25;9.85;;;;;;;;;;6186732;23;20015;-94
2023/02/22 14:01:13;;;;;;;14.50;10.10;;;;;;;;;;6181934;23;20013;-92
2023/02/22 14:03:40;;;;;;;14.25;9.57;;;;;;;;;;6215551;23;20012;-94
2023/02/22 14:06:11;;;;;;;13.90;10.02;;;;;;;;;;6186767;23;20016;-91
2023/02/22 14:08:39;;;;;;;13.45;9.98;;;;;;;;;;6188392;23;20024;-94
2023/02/22 14:11:32;;;;;;;12.15;9.57;;;;;;;;;;6187871;23;20005;-94
2023/02/22 14:14:10;;;;;;;10.70;8.77;;;;;;;;;;6189686;23;20431;-95
2023/02/22 14:16:49;;;;;;;11.55;8.88;;;;;;;;;;6192680;23;20489;-95
2023/02/22 14:19:27;;;;;;;10.77;9.05;;;;;;;;;;6216762;23;20005;-92
2023/02/22 14:22:11;;;;;;;12.07;9.05;;;;;;;;;;6188842;23;20001;-94
2023/02/22 14:24:49;;;;;;;10.30;7.90;;;;;;;;;;6189933;23;20005;-95
2023/02/22 14:27:17;;;;;;;9.57;8.10;;;;;;;;;;6189040;23;20001;-96
2023/02/22 14:29:59;;;;;;;11.05;8.90;;;;;;;;;;6191441;23;20052;-93
2023/02/22 14:35:07;;;;;;;10.27;8.30;;;;;;;;;;6150252;22;20016;-95
2023/02/22 14:41:09;;;;;;;12.25;8.80;;;;;;;;;;6193002;23;20362;-93
2023/02/22 14:43:41;;;;;;;10.80;8.82;;;;;;;;;;6164678;23;20005;-96
2023/02/22 14:46:11;;;;;;;11.32;9.25;;;;;;;;;;6167688;23;20013;-94
2023/02/22 14:48:43;;;;;;;11.48;9.30;;;;;;;;;;6160976;23;20013;-94
2023/02/22 14:51:28;;;;;;;11.38;9.10;;;;;;;;;;6159666;23;20055;-91
2023/02/22 14:54:13;;;;;;;13.43;8.50;;;;;;;;;;6163017;23;20013;-94
2023/02/22 14:56:47;;;;;;;10.82;9.23;;;;;;;;;;6166506;23;20020;-94
2023/02/22 14:59:25;;;;;;;9.93;8.75;;;;;;;;;;6165654;23;20016;-94
2023/02/22 15:02:12;;;;;;;14.75;8.98;;;;;;;;;;6163617;23;20024;-95
2023/02/22 15:04:46;;;;;;;11.23;9.10;;;;;;;;;;6163330;23;20057;-91
2023/02/22 15:07:30;;;;;;;13.23;9.35;;;;;;;;;;6164262;23;20005;-95
2023/02/22 15:10:16;;;;;;;13.68;9.02;;;;;;;;;;6161623;23;20017;-93
2023/02/22 15:13:13;;;;;;;12.82;9.15;;;;;;;;;;6164290;23;20065;-96
2023/02/22 15:16:00;;;;;;;14.95;10.52;;;;;;;;;;6039065;23;20143;-93
2023/02/22 15:18:51;;;;;;;11.88;9.40;;;;;;;;;;6165883;23;20005;-92
2023/02/22 15:21:32;;;;;;;12.02;9.43;;;;;;;;;;6181945;23;20009;-93
2023/02/22 15:24:20;;;;;;;18.42;10.00;;;;;;;;;;6163173;23;20009;-92
2023/02/22 15:26:47;;;;;;;12.43;9.60;;;;;;;;;;6165079;23;20439;-92
2023/02/22 15:29:43;;;;;;;13.30;9.48;;;;;;;;;;6153854;23;20347;-91
2023/02/22 15:32:29;;;;;;;13.18;9.05;;;;;;;;;;6163677;23;20005;-92
2023/02/22 15:35:15;;;;;;;12.38;8.43;;;;;;;;;;6188152;23;20005;-91
2023/02/22 15:37:45;;;;;;;12.45;8.52;;;;;;;;;;6162486;23;20069;-92
2023/02/22 15:40:22;;;;;;;12.82;9.35;;;;;;;;;;6167550;23;20106;-94
2023/02/22 15:42:57;;;;;;;12.77;8.77;;;;;;;;;;6218429;23;20127;-94
2023/02/22 15:45:28;;;;;;;13.55;9.68;;;;;;;;;;6190546;23;20004;-91
2023/02/22 15:48:08;;;;;;;13.10;8.50;;;;;;;;;;6194491;23;20012;-95
2023/02/22 15:50:34;;;;;;;12.15;8.68;;;;;;;;;;6191100;23;20005;-92
2023/02/22 15:53:08;;;;;;;12.02;8.48;;;;;;;;;;6193105;23;20009;-93
2023/02/22 15:55:35;;;;;;;10.65;7.40;;;;;;;;;;6193875;23;20113;-94
2023/02/22 15:58:17;;;;;;;13.30;8.43;;;;;;;;;;6196942;23;20008;-92
2023/02/22 16:00:45;;;;;;;11.15;7.75;;;;;;;;;;6193290;23;20027;-94
2023/02/22 16:03:18;;;;;;;11.82;8.23;;;;;;;;;;6192743;23;20000;-95
2023/02/22 16:05:49;;;;;;;11.85;7.47;;;;;;;;;;6190547;23;20406;-93
2023/02/22 16:08:23;;;;;;;12.07;7.60;;;;;;;;;;6189480;23;20016;-92
2023/02/22 16:10:52;;;;;;;13.23;9.40;;;;;;;;;;6190166;23;20008;-91
2023/02/22 16:13:19;;;;;;;10.80;8.00;;;;;;;;;;6190088;23;20015;-92
2023/02/22 16:16:02;;;;;;;11.93;8.30;;;;;;;;;;6189860;23;20488;-91
2023/02/22 16:18:40;;;;;;;12.23;8.77;;;;;;;;;;6189725;23;20081;-93
2023/02/22 16:21:11;;;;;;;16.38;10.05;;;;;;;;;;6188374;23;20004;-90
2023/02/22 16:23:51;;;;;;;14.75;10.10;;;;;;;;;;6188918;23;20009;-91
2023/02/22 16:26:42;;;;;;;13.70;9.70;;;;;;;;;;6189941;23;20004;-92
2023/02/22 16:29:11;;;;;;;14.50;9.57;;;;;;;;;;6212828;23;20012;-91
2023/02/22 16:31:45;;;;;;;17.55;10.95;;;;;;;;;;6196708;23;20065;-96
2023/02/22 16:34:20;;;;;;;15.68;11.07;;;;;;;;;;6188313;23;20038;-93
2023/02/22 16:40:12;;;;;;;17.15;11.82;;;;;;;;;;6243615;22;20086;-96
2023/02/22 16:45:34;;;;;;;17.35;11.85;;;;;;;;;;6244324;23;20023;-96
2023/02/22 16:48:24;;;;;;;20.88;12.65;;;;;;;;;;6230755;23;20016;-94
2023/02/22 16:51:31;;;;;;;17.50;11.23;;;;;;;;;;6221843;23;20430;-96